NOS61XE HEMA-LIPX
Flight info
| Callsign | NOS61XE |
|---|---|
| Flight time | N/A |
| Altitude | 36000 |
| Route | MAK V730 MEMPO L300 LXR P751 METRU UM872 LINGI DCT MONUV/N0456F380 DCT ASTOV DCT IPTES DCT VJOSA DCT TIRCA DCT RODON DCT VAKSU DCT AMUGO DCT SOMIG DCT ELGUS DCT BAXON DCT ARDAM DCT LOBSI DCT KOPER L614 OSTEG |
| Aircraft | B38M/M-SDE1FGHILORVWXY/HB1 |
Departure
| Time | 2026-05-09 08:41 |
|---|---|
| Airport | Marsa Alam International Airport (HEMA) |
Arrival
| Time | N/A |
|---|---|
| Airport | Verona Villafranca Valerio Catullo Airport (LIPX) |
| Time | Latitude | Longitude | Altitude | Speed | Heading |
|---|---|---|---|---|---|
| 2026-05-09 08:11 | 25.55556 | 34.59026 | 241 ft | 0 kts | 60° |
| 2026-05-09 08:31 | 25.55554 | 34.59022 | 241 ft | 4 kts | 59° |
| 2026-05-09 08:31 | 25.55541 | 34.58996 | 241 ft | 4 kts | 63° |
| 2026-05-09 08:31 | 25.55532 | 34.58974 | 241 ft | 2 kts | 80° |
| 2026-05-09 08:31 | 25.55532 | 34.58961 | 241 ft | 2 kts | 116° |
| 2026-05-09 08:32 | 25.55539 | 34.58951 | 241 ft | 2 kts | 142° |
| 2026-05-09 08:32 | 25.55548 | 34.58944 | 241 ft | 2 kts | 148° |
| 2026-05-09 08:32 | 25.55552 | 34.58941 | 241 ft | 0 kts | 148° |
| 2026-05-09 08:34 | 25.55538 | 34.58951 | 241 ft | 5 kts | 148° |
| 2026-05-09 08:34 | 25.55499 | 34.58976 | 241 ft | 7 kts | 150° |
| 2026-05-09 08:35 | 25.55458 | 34.59001 | 241 ft | 7 kts | 150° |
| 2026-05-09 08:35 | 25.55418 | 34.59027 | 241 ft | 7 kts | 150° |
| 2026-05-09 08:35 | 25.55379 | 34.59052 | 241 ft | 6 kts | 150° |
| 2026-05-09 08:35 | 25.55340 | 34.59076 | 241 ft | 6 kts | 150° |
| 2026-05-09 08:36 | 25.55303 | 34.59101 | 241 ft | 6 kts | 149° |
| 2026-05-09 08:36 | 25.55266 | 34.59124 | 241 ft | 6 kts | 150° |
| 2026-05-09 08:36 | 25.55225 | 34.59132 | 241 ft | 6 kts | 190° |
| 2026-05-09 08:36 | 25.55193 | 34.59106 | 242 ft | 6 kts | 233° |
| 2026-05-09 08:37 | 25.55171 | 34.59068 | 245 ft | 6 kts | 239° |
| 2026-05-09 08:37 | 25.55150 | 34.59030 | 250 ft | 6 kts | 232° |
| 2026-05-09 08:37 | 25.55117 | 34.59007 | 253 ft | 6 kts | 191° |
| 2026-05-09 08:37 | 25.55068 | 34.59022 | 253 ft | 9 kts | 152° |
| 2026-05-09 08:38 | 25.54998 | 34.59065 | 254 ft | 13 kts | 149° |
| 2026-05-09 08:38 | 25.54921 | 34.59115 | 253 ft | 13 kts | 150° |
| 2026-05-09 08:38 | 25.54846 | 34.59163 | 251 ft | 12 kts | 149° |
| 2026-05-09 08:38 | 25.54771 | 34.59211 | 248 ft | 12 kts | 150° |
| 2026-05-09 08:39 | 25.54697 | 34.59258 | 248 ft | 11 kts | 150° |
| 2026-05-09 08:39 | 25.54668 | 34.59266 | 248 ft | 6 kts | 179° |
| 2026-05-09 08:39 | 25.54629 | 34.59247 | 249 ft | 6 kts | 223° |
| 2026-05-09 08:39 | 25.54607 | 34.59207 | 251 ft | 6 kts | 243° |
| 2026-05-09 08:40 | 25.54587 | 34.59166 | 252 ft | 6 kts | 243° |
| 2026-05-09 08:40 | 25.54584 | 34.59121 | 253 ft | 6 kts | 287° |
| 2026-05-09 08:40 | 25.54610 | 34.59087 | 253 ft | 7 kts | 324° |
| 2026-05-09 08:40 | 25.54806 | 34.58961 | 258 ft | 66 kts | 330° |
| 2026-05-09 08:41 | 25.55395 | 34.58585 | 255 ft | 127 kts | 330° |
| 2026-05-09 08:41 | 25.56300 | 34.58001 | 394 ft | 166 kts | 329° |
| 2026-05-09 08:41 | 25.57251 | 34.57354 | 1291 ft | 158 kts | 329° |
| 2026-05-09 08:41 | 25.58197 | 34.56738 | 1993 ft | 163 kts | 330° |
| 2026-05-09 08:42 | 25.59245 | 34.56072 | 2262 ft | 186 kts | 330° |
| 2026-05-09 08:42 | 25.60429 | 34.55294 | 2528 ft | 203 kts | 326° |
| 2026-05-09 08:42 | 25.61429 | 34.54194 | 2907 ft | 211 kts | 301° |
| 2026-05-09 08:42 | 25.61813 | 34.52588 | 3150 ft | 228 kts | 269° |
| 2026-05-09 08:43 | 25.61295 | 34.50827 | 3243 ft | 252 kts | 239° |
| 2026-05-09 08:43 | 25.60436 | 34.49156 | 3734 ft | 256 kts | 249° |
| 2026-05-09 08:43 | 25.59775 | 34.47245 | 4088 ft | 271 kts | 250° |
| 2026-05-09 08:43 | 25.59102 | 34.45296 | 4839 ft | 268 kts | 250° |
| 2026-05-09 08:44 | 25.58817 | 34.43280 | 5518 ft | 267 kts | 274° |
| 2026-05-09 08:44 | 25.59028 | 34.41205 | 6068 ft | 275 kts | 277° |
| 2026-05-09 08:44 | 25.59281 | 34.39077 | 6618 ft | 281 kts | 277° |
| 2026-05-09 08:44 | 25.59537 | 34.36930 | 7277 ft | 281 kts | 277° |
| 2026-05-09 08:45 | 25.59786 | 34.34772 | 7869 ft | 284 kts | 277° |
| 2026-05-09 08:45 | 25.60030 | 34.32587 | 8436 ft | 288 kts | 277° |
| 2026-05-09 08:45 | 25.60269 | 34.30370 | 9048 ft | 291 kts | 276° |
| 2026-05-09 08:45 | 25.60505 | 34.28139 | 9675 ft | 293 kts | 276° |
| 2026-05-09 08:46 | 25.60740 | 34.25884 | 10202 ft | 297 kts | 276° |
| 2026-05-09 08:46 | 25.60980 | 34.23538 | 10371 ft | 316 kts | 276° |
| 2026-05-09 08:46 | 25.61232 | 34.21052 | 10506 ft | 334 kts | 276° |
| 2026-05-09 08:46 | 25.61492 | 34.18470 | 10643 ft | 350 kts | 276° |
| 2026-05-09 08:47 | 25.61770 | 34.15693 | 10759 ft | 365 kts | 276° |
| 2026-05-09 08:47 | 25.62051 | 34.12882 | 10886 ft | 378 kts | 276° |
| 2026-05-09 08:47 | 25.62347 | 34.09902 | 11060 ft | 388 kts | 276° |
| 2026-05-09 08:47 | 25.62640 | 34.06940 | 11577 ft | 388 kts | 276° |
| 2026-05-09 08:48 | 25.62934 | 34.03956 | 12002 ft | 390 kts | 276° |
| 2026-05-09 08:48 | 25.63229 | 34.00960 | 12486 ft | 392 kts | 276° |
| 2026-05-09 08:48 | 25.63526 | 33.97944 | 12914 ft | 395 kts | 276° |
| 2026-05-09 08:48 | 25.63824 | 33.94912 | 13393 ft | 396 kts | 276° |
| 2026-05-09 08:49 | 25.64122 | 33.91868 | 13834 ft | 398 kts | 276° |
| 2026-05-09 08:49 | 25.64421 | 33.88808 | 14242 ft | 400 kts | 276° |
| 2026-05-09 08:49 | 25.64719 | 33.85742 | 14687 ft | 401 kts | 276° |
| 2026-05-09 08:49 | 25.65018 | 33.82672 | 15136 ft | 402 kts | 276° |
| 2026-05-09 08:50 | 25.65331 | 33.79590 | 15563 ft | 403 kts | 278° |
| 2026-05-09 08:50 | 25.66003 | 33.76605 | 15948 ft | 407 kts | 289° |
| 2026-05-09 08:50 | 25.67207 | 33.73762 | 16384 ft | 409 kts | 298° |
| 2026-05-09 08:50 | 25.68646 | 33.71036 | 16814 ft | 410 kts | 299° |
| 2026-05-09 08:51 | 25.70092 | 33.68299 | 17202 ft | 413 kts | 298° |
| 2026-05-09 08:51 | 25.71540 | 33.65542 | 17577 ft | 415 kts | 298° |
| 2026-05-09 08:51 | 25.72989 | 33.62769 | 17974 ft | 416 kts | 298° |
| 2026-05-09 08:51 | 25.74436 | 33.59982 | 18344 ft | 418 kts | 298° |
| 2026-05-09 08:52 | 25.75882 | 33.57187 | 18669 ft | 419 kts | 298° |
| 2026-05-09 08:52 | 25.77334 | 33.54373 | 18981 ft | 421 kts | 298° |
| 2026-05-09 08:52 | 25.78790 | 33.51546 | 19299 ft | 423 kts | 298° |
| 2026-05-09 08:52 | 25.80251 | 33.48706 | 19626 ft | 424 kts | 298° |
| 2026-05-09 08:53 | 25.81717 | 33.45855 | 19938 ft | 426 kts | 298° |
| 2026-05-09 08:53 | 25.83188 | 33.42992 | 20251 ft | 428 kts | 298° |
| 2026-05-09 08:53 | 25.84664 | 33.40116 | 20550 ft | 429 kts | 298° |
| 2026-05-09 08:53 | 25.86146 | 33.37229 | 20856 ft | 431 kts | 298° |
| 2026-05-09 08:54 | 25.87632 | 33.34329 | 21144 ft | 433 kts | 298° |
| 2026-05-09 08:54 | 25.89121 | 33.31424 | 21454 ft | 434 kts | 298° |
| 2026-05-09 08:54 | 25.90617 | 33.28504 | 21741 ft | 436 kts | 298° |
| 2026-05-09 08:54 | 25.92119 | 33.25568 | 22022 ft | 438 kts | 298° |
| 2026-05-09 08:55 | 25.93626 | 33.22622 | 22304 ft | 439 kts | 298° |
| 2026-05-09 08:55 | 25.95139 | 33.19663 | 22574 ft | 441 kts | 298° |
| 2026-05-09 08:55 | 25.96656 | 33.16694 | 22851 ft | 442 kts | 298° |
| 2026-05-09 08:55 | 25.98177 | 33.13713 | 23084 ft | 445 kts | 298° |
| 2026-05-09 08:56 | 25.99703 | 33.10723 | 23316 ft | 447 kts | 298° |
| 2026-05-09 08:56 | 26.01237 | 33.07713 | 23560 ft | 448 kts | 298° |
| 2026-05-09 08:56 | 26.02776 | 33.04694 | 23782 ft | 449 kts | 298° |
| 2026-05-09 08:56 | 26.04297 | 33.01705 | 23986 ft | 451 kts | 298° |
| 2026-05-09 08:57 | 26.05844 | 32.98666 | 24184 ft | 452 kts | 298° |
| 2026-05-09 08:57 | 26.07395 | 32.95615 | 24375 ft | 454 kts | 298° |
| 2026-05-09 08:57 | 26.08951 | 32.92553 | 24576 ft | 455 kts | 298° |
| 2026-05-09 08:57 | 26.10510 | 32.89481 | 24773 ft | 457 kts | 298° |
| 2026-05-09 08:58 | 26.12075 | 32.86397 | 24927 ft | 459 kts | 298° |
| 2026-05-09 08:58 | 26.13650 | 32.83291 | 25062 ft | 462 kts | 298° |
| 2026-05-09 08:58 | 26.15230 | 32.80173 | 25261 ft | 463 kts | 298° |
| 2026-05-09 08:58 | 26.16808 | 32.77057 | 25474 ft | 463 kts | 298° |
| 2026-05-09 08:59 | 26.18393 | 32.73926 | 25658 ft | 465 kts | 298° |
| 2026-05-09 08:59 | 26.19981 | 32.70785 | 25832 ft | 466 kts | 298° |
| 2026-05-09 08:59 | 26.21573 | 32.67634 | 26008 ft | 468 kts | 298° |
| 2026-05-09 08:59 | 26.23169 | 32.64472 | 26188 ft | 469 kts | 298° |
| 2026-05-09 09:00 | 26.24769 | 32.61302 | 26357 ft | 470 kts | 298° |
| 2026-05-09 09:00 | 26.26372 | 32.58122 | 26545 ft | 471 kts | 298° |
| 2026-05-09 09:00 | 26.27976 | 32.54940 | 26801 ft | 470 kts | 298° |
| 2026-05-09 09:00 | 26.29574 | 32.51766 | 27096 ft | 469 kts | 298° |
| 2026-05-09 09:01 | 26.31164 | 32.48606 | 27361 ft | 468 kts | 298° |
| 2026-05-09 09:01 | 26.32755 | 32.45442 | 27630 ft | 468 kts | 298° |
| 2026-05-09 09:01 | 26.34344 | 32.42280 | 27912 ft | 467 kts | 298° |
| 2026-05-09 09:01 | 26.35931 | 32.39120 | 28168 ft | 467 kts | 298° |
| 2026-05-09 09:02 | 26.37520 | 32.35953 | 28391 ft | 468 kts | 298° |
| 2026-05-09 09:02 | 26.39106 | 32.32788 | 28695 ft | 467 kts | 297° |
| 2026-05-09 09:02 | 26.40689 | 32.29629 | 29039 ft | 466 kts | 297° |
| 2026-05-09 09:02 | 26.42266 | 32.26478 | 29363 ft | 464 kts | 297° |
| 2026-05-09 09:03 | 26.43840 | 32.23333 | 29672 ft | 464 kts | 297° |
| 2026-05-09 09:03 | 26.45409 | 32.20193 | 29990 ft | 463 kts | 297° |
| 2026-05-09 09:03 | 26.46976 | 32.17057 | 30246 ft | 462 kts | 297° |
| 2026-05-09 09:03 | 26.48519 | 32.13967 | 30541 ft | 461 kts | 297° |
| 2026-05-09 09:04 | 26.50097 | 32.10804 | 30831 ft | 460 kts | 297° |
| 2026-05-09 09:04 | 26.51652 | 32.07685 | 31080 ft | 460 kts | 297° |
| 2026-05-09 09:04 | 26.53201 | 32.04574 | 31345 ft | 459 kts | 297° |
| 2026-05-09 09:04 | 26.54750 | 32.01464 | 31641 ft | 457 kts | 297° |
| 2026-05-09 09:05 | 26.56272 | 31.98404 | 31932 ft | 456 kts | 297° |
| 2026-05-09 09:05 | 26.57811 | 31.95309 | 32199 ft | 455 kts | 297° |
| 2026-05-09 09:05 | 26.59346 | 31.92218 | 32457 ft | 455 kts | 297° |
| 2026-05-09 09:05 | 26.60879 | 31.89130 | 32718 ft | 454 kts | 297° |
| 2026-05-09 09:06 | 26.62407 | 31.86050 | 32990 ft | 453 kts | 297° |
| 2026-05-09 09:06 | 26.63931 | 31.82975 | 33273 ft | 452 kts | 296° |
| 2026-05-09 09:06 | 26.65451 | 31.79906 | 33548 ft | 451 kts | 296° |
| 2026-05-09 09:06 | 26.66967 | 31.76845 | 33822 ft | 449 kts | 296° |
| 2026-05-09 09:07 | 26.68474 | 31.73798 | 34072 ft | 448 kts | 296° |
| 2026-05-09 09:07 | 26.69980 | 31.70753 | 34329 ft | 447 kts | 296° |
| 2026-05-09 09:07 | 26.71479 | 31.67718 | 34575 ft | 445 kts | 296° |
| 2026-05-09 09:07 | 26.72972 | 31.64693 | 34812 ft | 443 kts | 296° |
| 2026-05-09 09:08 | 26.74459 | 31.61679 | 35086 ft | 441 kts | 296° |
| 2026-05-09 09:08 | 26.75937 | 31.58682 | 35383 ft | 438 kts | 296° |
| 2026-05-09 09:08 | 26.77404 | 31.55704 | 35655 ft | 436 kts | 296° |
| 2026-05-09 09:08 | 26.78865 | 31.52737 | 35886 ft | 434 kts | 296° |
| 2026-05-09 09:09 | 26.80323 | 31.49773 | 36003 ft | 436 kts | 296° |
| 2026-05-09 09:09 | 26.83246 | 31.43821 | 35997 ft | 435 kts | 296° |
| 2026-05-09 09:10 | 26.86151 | 31.37904 | 36022 ft | 433 kts | 296° |
| 2026-05-09 09:10 | 26.89039 | 31.32012 | 36036 ft | 430 kts | 296° |
| 2026-05-09 09:11 | 26.91911 | 31.26142 | 36071 ft | 429 kts | 296° |
| 2026-05-09 09:11 | 26.94774 | 31.20284 | 36089 ft | 428 kts | 296° |
| 2026-05-09 09:12 | 26.97636 | 31.14419 | 36101 ft | 429 kts | 296° |
| 2026-05-09 09:12 | 27.00502 | 31.08540 | 36106 ft | 430 kts | 296° |
| 2026-05-09 09:13 | 27.03928 | 31.03015 | 36109 ft | 437 kts | 310° |
| 2026-05-09 09:13 | 27.08621 | 30.98656 | 36117 ft | 444 kts | 321° |
| 2026-05-09 09:14 | 27.13703 | 30.94683 | 36110 ft | 446 kts | 321° |
| 2026-05-09 09:14 | 27.18799 | 30.90694 | 36086 ft | 447 kts | 321° |
| 2026-05-09 09:15 | 27.23893 | 30.86659 | 36083 ft | 449 kts | 321° |
| 2026-05-09 09:15 | 27.28988 | 30.82598 | 36079 ft | 449 kts | 320° |
| 2026-05-09 09:16 | 27.34072 | 30.78536 | 36079 ft | 448 kts | 320° |
| 2026-05-09 09:16 | 27.41687 | 30.72443 | 36077 ft | 447 kts | 320° |
| 2026-05-09 09:17 | 27.46744 | 30.68392 | 36076 ft | 445 kts | 320° |
| 2026-05-09 09:17 | 27.51785 | 30.64349 | 36068 ft | 444 kts | 320° |
| 2026-05-09 09:18 | 27.56813 | 30.60312 | 36070 ft | 443 kts | 320° |
| 2026-05-09 09:18 | 27.61826 | 30.56282 | 36072 ft | 442 kts | 320° |
| 2026-05-09 09:19 | 27.66824 | 30.52260 | 36071 ft | 441 kts | 320° |
| 2026-05-09 09:19 | 27.71817 | 30.48237 | 36073 ft | 441 kts | 320° |
| 2026-05-09 09:20 | 27.76802 | 30.44215 | 36067 ft | 440 kts | 320° |
| 2026-05-09 09:20 | 27.81782 | 30.40194 | 36072 ft | 440 kts | 320° |
| 2026-05-09 09:21 | 27.86761 | 30.36168 | 36074 ft | 440 kts | 320° |
| 2026-05-09 09:21 | 27.91743 | 30.32135 | 36079 ft | 441 kts | 320° |
| 2026-05-09 09:22 | 27.96726 | 30.28097 | 36073 ft | 441 kts | 320° |
| 2026-05-09 09:22 | 28.01722 | 30.24043 | 36071 ft | 442 kts | 320° |
| 2026-05-09 09:23 | 28.06725 | 30.19979 | 36072 ft | 443 kts | 320° |
| 2026-05-09 09:23 | 28.11734 | 30.15906 | 36069 ft | 444 kts | 320° |
| 2026-05-09 09:24 | 28.16750 | 30.11823 | 36077 ft | 444 kts | 320° |
| 2026-05-09 09:24 | 28.21765 | 30.07735 | 36086 ft | 445 kts | 320° |
| 2026-05-09 09:25 | 28.26758 | 30.03660 | 36073 ft | 445 kts | 320° |
| 2026-05-09 09:25 | 28.31787 | 29.99551 | 36075 ft | 445 kts | 320° |
| 2026-05-09 09:26 | 28.36816 | 29.95437 | 36072 ft | 446 kts | 320° |
| 2026-05-09 09:26 | 28.41836 | 29.91327 | 36073 ft | 445 kts | 320° |
| 2026-05-09 09:27 | 28.46861 | 29.87206 | 36073 ft | 445 kts | 320° |
| 2026-05-09 09:27 | 28.51872 | 29.83092 | 36073 ft | 445 kts | 320° |
| 2026-05-09 09:28 | 28.56042 | 29.79665 | 36085 ft | 445 kts | 320° |
| 2026-05-09 09:28 | 28.61049 | 29.75545 | 36076 ft | 444 kts | 320° |
| 2026-05-09 09:29 | 28.66056 | 29.71420 | 36075 ft | 444 kts | 320° |
| 2026-05-09 09:29 | 28.71060 | 29.67293 | 36078 ft | 444 kts | 320° |
| 2026-05-09 09:30 | 28.76060 | 29.63164 | 36076 ft | 444 kts | 320° |
| 2026-05-09 09:30 | 28.81058 | 29.59032 | 36076 ft | 444 kts | 320° |
| 2026-05-09 09:31 | 28.86048 | 29.54901 | 36087 ft | 444 kts | 320° |
| 2026-05-09 09:32 | 28.93548 | 29.48683 | 36079 ft | 444 kts | 320° |
| 2026-05-09 09:32 | 28.98550 | 29.44530 | 36081 ft | 445 kts | 320° |
| 2026-05-09 09:33 | 29.03555 | 29.40368 | 36081 ft | 445 kts | 320° |
| 2026-05-09 09:33 | 29.08563 | 29.36200 | 36084 ft | 445 kts | 320° |
| 2026-05-09 09:34 | 29.13570 | 29.32019 | 36077 ft | 446 kts | 320° |
| 2026-05-09 09:34 | 29.18526 | 29.27758 | 36077 ft | 446 kts | 319° |
| 2026-05-09 09:36 | 29.38361 | 29.10584 | 36077 ft | 448 kts | 319° |
| 2026-05-09 09:37 | 29.43332 | 29.06271 | 36097 ft | 448 kts | 319° |
| 2026-05-09 09:37 | 29.48294 | 29.01936 | 36081 ft | 448 kts | 319° |
| 2026-05-09 09:38 | 29.53232 | 28.97610 | 36091 ft | 444 kts | 319° |
| 2026-05-09 09:38 | 29.58088 | 28.93353 | 36098 ft | 440 kts | 319° |
| 2026-05-09 09:39 | 29.62936 | 28.89098 | 36090 ft | 437 kts | 319° |
| 2026-05-09 09:39 | 29.67751 | 28.84866 | 36092 ft | 435 kts | 319° |
| 2026-05-09 09:40 | 29.72561 | 28.80631 | 36114 ft | 438 kts | 319° |
| 2026-05-09 09:40 | 29.77431 | 28.76338 | 36110 ft | 444 kts | 319° |
| 2026-05-09 09:41 | 29.82344 | 28.72004 | 36126 ft | 446 kts | 319° |
| 2026-05-09 09:41 | 29.87283 | 28.67643 | 36113 ft | 447 kts | 319° |
| 2026-05-09 09:42 | 29.92225 | 28.63274 | 36104 ft | 448 kts | 319° |
| 2026-05-09 09:42 | 29.97164 | 28.58902 | 36112 ft | 447 kts | 319° |
| 2026-05-09 09:43 | 30.02092 | 28.54533 | 36112 ft | 447 kts | 319° |
| 2026-05-09 09:43 | 30.07015 | 28.50162 | 36120 ft | 446 kts | 319° |
| 2026-05-09 09:44 | 30.11926 | 28.45797 | 36118 ft | 445 kts | 319° |
| 2026-05-09 09:44 | 30.16825 | 28.41437 | 36119 ft | 444 kts | 319° |
| 2026-05-09 09:45 | 30.21714 | 28.37080 | 36123 ft | 443 kts | 319° |
| 2026-05-09 09:45 | 30.26595 | 28.32724 | 36125 ft | 443 kts | 319° |
| 2026-05-09 09:46 | 30.31472 | 28.28367 | 36127 ft | 443 kts | 319° |
| 2026-05-09 09:46 | 30.36341 | 28.24010 | 36130 ft | 443 kts | 319° |
| 2026-05-09 09:47 | 30.41218 | 28.19642 | 36130 ft | 443 kts | 319° |
| 2026-05-09 09:47 | 30.46100 | 28.15262 | 36149 ft | 444 kts | 319° |
| 2026-05-09 09:48 | 30.50991 | 28.10870 | 36132 ft | 445 kts | 319° |
| 2026-05-09 09:48 | 30.55881 | 28.06472 | 36144 ft | 445 kts | 319° |
| 2026-05-09 09:49 | 30.60774 | 28.02066 | 36143 ft | 445 kts | 319° |
| 2026-05-09 09:49 | 30.65660 | 27.97661 | 36148 ft | 445 kts | 319° |
| 2026-05-09 09:50 | 30.70519 | 27.93274 | 36154 ft | 445 kts | 319° |
| 2026-05-09 09:50 | 30.75409 | 27.88852 | 36151 ft | 445 kts | 319° |
| 2026-05-09 09:51 | 30.80297 | 27.84428 | 36154 ft | 445 kts | 319° |
| 2026-05-09 09:51 | 30.85177 | 27.80004 | 36157 ft | 444 kts | 319° |
| 2026-05-09 09:52 | 30.90045 | 27.75586 | 36159 ft | 443 kts | 319° |
| 2026-05-09 09:52 | 30.94899 | 27.71174 | 36163 ft | 442 kts | 319° |
| 2026-05-09 09:53 | 30.99740 | 27.66767 | 36163 ft | 441 kts | 319° |
| 2026-05-09 09:53 | 31.04564 | 27.62370 | 36165 ft | 440 kts | 319° |
| 2026-05-09 09:54 | 31.09384 | 27.57971 | 36182 ft | 439 kts | 320° |
| 2026-05-09 09:54 | 31.13957 | 27.53275 | 36171 ft | 437 kts | 309° |
| 2026-05-09 09:55 | 31.17442 | 27.47505 | 36174 ft | 435 kts | 302° |
| 2026-05-09 09:55 | 31.20785 | 27.41618 | 36181 ft | 435 kts | 303° |
| 2026-05-09 09:56 | 31.24162 | 27.35758 | 36183 ft | 436 kts | 303° |
| 2026-05-09 09:56 | 31.27561 | 27.29888 | 36186 ft | 436 kts | 303° |
| 2026-05-09 09:57 | 31.31051 | 27.24074 | 36170 ft | 438 kts | 310° |
| 2026-05-09 09:57 | 31.35575 | 27.19384 | 36181 ft | 441 kts | 326° |
| 2026-05-09 09:58 | 31.40762 | 27.15543 | 36172 ft | 442 kts | 327° |
| 2026-05-09 09:58 | 31.45976 | 27.11718 | 36183 ft | 443 kts | 326° |
| 2026-05-09 09:59 | 31.51181 | 27.07855 | 36167 ft | 443 kts | 326° |
| 2026-05-09 09:59 | 31.56375 | 27.03968 | 36164 ft | 443 kts | 326° |
| 2026-05-09 10:00 | 31.61555 | 27.00077 | 36165 ft | 442 kts | 326° |
| 2026-05-09 10:00 | 31.66732 | 26.96182 | 36161 ft | 442 kts | 326° |
| 2026-05-09 10:01 | 31.71899 | 26.92290 | 36155 ft | 441 kts | 326° |
| 2026-05-09 10:01 | 31.77055 | 26.88401 | 36156 ft | 440 kts | 326° |
| 2026-05-09 10:02 | 31.82194 | 26.84521 | 36152 ft | 439 kts | 326° |
| 2026-05-09 10:02 | 31.87324 | 26.80642 | 36145 ft | 438 kts | 326° |
| 2026-05-09 10:03 | 31.92439 | 26.76769 | 36145 ft | 437 kts | 326° |
| 2026-05-09 10:03 | 31.97538 | 26.72903 | 36142 ft | 436 kts | 326° |
| 2026-05-09 10:04 | 32.02633 | 26.69035 | 36159 ft | 435 kts | 326° |
| 2026-05-09 10:04 | 32.07722 | 26.65166 | 36148 ft | 435 kts | 326° |
| 2026-05-09 10:05 | 32.12775 | 26.61319 | 36137 ft | 435 kts | 326° |
| 2026-05-09 10:05 | 32.17855 | 26.57447 | 36139 ft | 434 kts | 326° |
| 2026-05-09 10:06 | 32.22929 | 26.53575 | 36138 ft | 434 kts | 325° |
| 2026-05-09 10:06 | 32.27994 | 26.49703 | 36135 ft | 434 kts | 325° |
| 2026-05-09 10:07 | 32.33051 | 26.45833 | 36155 ft | 433 kts | 325° |
| 2026-05-09 10:07 | 32.38110 | 26.41956 | 36136 ft | 433 kts | 325° |
| 2026-05-09 10:08 | 32.43162 | 26.38080 | 36135 ft | 432 kts | 325° |
| 2026-05-09 10:08 | 32.48203 | 26.34205 | 36134 ft | 432 kts | 325° |
| 2026-05-09 10:09 | 32.53234 | 26.30335 | 36133 ft | 431 kts | 325° |
| 2026-05-09 10:09 | 32.58259 | 26.26463 | 36129 ft | 430 kts | 325° |
| 2026-05-09 10:10 | 32.63277 | 26.22591 | 36148 ft | 430 kts | 324° |
| 2026-05-09 10:10 | 32.68285 | 26.18721 | 36130 ft | 429 kts | 324° |
| 2026-05-09 10:11 | 32.73278 | 26.14858 | 36129 ft | 428 kts | 324° |
| 2026-05-09 10:11 | 32.78264 | 26.10996 | 36124 ft | 427 kts | 324° |
| 2026-05-09 10:12 | 32.83239 | 26.07136 | 36125 ft | 427 kts | 324° |
| 2026-05-09 10:12 | 32.88202 | 26.03280 | 36125 ft | 426 kts | 324° |
| 2026-05-09 10:13 | 32.93129 | 25.99447 | 36134 ft | 426 kts | 324° |
| 2026-05-09 10:13 | 32.98087 | 25.95585 | 36123 ft | 426 kts | 324° |
| 2026-05-09 10:14 | 33.03041 | 25.91721 | 36121 ft | 425 kts | 324° |
| 2026-05-09 10:14 | 33.07990 | 25.87856 | 36123 ft | 425 kts | 324° |
| 2026-05-09 10:15 | 33.12932 | 25.83991 | 36123 ft | 425 kts | 324° |
| 2026-05-09 10:15 | 33.17878 | 25.80116 | 36123 ft | 425 kts | 324° |
| 2026-05-09 10:16 | 33.22824 | 25.76237 | 36117 ft | 425 kts | 324° |
| 2026-05-09 10:16 | 33.26964 | 25.72986 | 36117 ft | 425 kts | 324° |
| 2026-05-09 10:17 | 33.31879 | 25.69122 | 36115 ft | 426 kts | 324° |
| 2026-05-09 10:17 | 33.36829 | 25.65224 | 36115 ft | 426 kts | 324° |
| 2026-05-09 10:18 | 33.41781 | 25.61320 | 36117 ft | 426 kts | 324° |
| 2026-05-09 10:18 | 33.46735 | 25.57409 | 36118 ft | 427 kts | 324° |
| 2026-05-09 10:19 | 33.51685 | 25.53494 | 36126 ft | 427 kts | 324° |
| 2026-05-09 10:19 | 33.56644 | 25.49568 | 36111 ft | 427 kts | 324° |
| 2026-05-09 10:20 | 33.61596 | 25.45642 | 36114 ft | 426 kts | 324° |
| 2026-05-09 10:20 | 33.66536 | 25.41720 | 36114 ft | 426 kts | 324° |
| 2026-05-09 10:21 | 33.71475 | 25.37793 | 36111 ft | 425 kts | 323° |
| 2026-05-09 10:21 | 33.76405 | 25.33867 | 36112 ft | 425 kts | 323° |
| 2026-05-09 10:22 | 33.81328 | 25.29942 | 36114 ft | 424 kts | 323° |
| 2026-05-09 10:22 | 33.86235 | 25.26024 | 36104 ft | 423 kts | 323° |
| 2026-05-09 10:23 | 33.91124 | 25.22114 | 36107 ft | 421 kts | 323° |
| 2026-05-09 10:23 | 33.95990 | 25.18218 | 36106 ft | 420 kts | 323° |
| 2026-05-09 10:24 | 34.00768 | 25.14210 | 36101 ft | 416 kts | 316° |
| 2026-05-09 10:24 | 34.04953 | 25.09422 | 36104 ft | 414 kts | 314° |
| 2026-05-09 10:25 | 34.09106 | 25.04603 | 36123 ft | 414 kts | 314° |
| 2026-05-09 10:25 | 34.13273 | 24.99796 | 36113 ft | 414 kts | 314° |
| 2026-05-09 10:26 | 34.17442 | 24.94999 | 36098 ft | 414 kts | 314° |
| 2026-05-09 10:26 | 34.21598 | 24.90215 | 36102 ft | 413 kts | 314° |
| 2026-05-09 10:27 | 34.25748 | 24.85432 | 36099 ft | 412 kts | 314° |
| 2026-05-09 10:27 | 34.29860 | 24.80683 | 36097 ft | 411 kts | 314° |
| 2026-05-09 10:28 | 34.33993 | 24.75906 | 36100 ft | 411 kts | 314° |
| 2026-05-09 10:28 | 34.38120 | 24.71126 | 36104 ft | 410 kts | 314° |
| 2026-05-09 10:29 | 34.42243 | 24.66345 | 36111 ft | 410 kts | 314° |
| 2026-05-09 10:29 | 34.46356 | 24.61568 | 36099 ft | 410 kts | 314° |
| 2026-05-09 10:30 | 34.50472 | 24.56794 | 36099 ft | 409 kts | 315° |
| 2026-05-09 10:30 | 34.55174 | 24.52861 | 36102 ft | 414 kts | 328° |
| 2026-05-09 10:31 | 34.60283 | 24.49629 | 36096 ft | 414 kts | 328° |
| 2026-05-09 10:31 | 34.65383 | 24.46385 | 36097 ft | 413 kts | 328° |
| 2026-05-09 10:32 | 34.70465 | 24.43124 | 36109 ft | 413 kts | 328° |
| 2026-05-09 10:32 | 34.75544 | 24.39849 | 36098 ft | 413 kts | 328° |
| 2026-05-09 10:33 | 34.80616 | 24.36572 | 36106 ft | 412 kts | 328° |
| 2026-05-09 10:33 | 34.85679 | 24.33294 | 36095 ft | 412 kts | 328° |
| 2026-05-09 10:34 | 34.90725 | 24.30023 | 36101 ft | 411 kts | 328° |
| 2026-05-09 10:34 | 34.98251 | 24.25137 | 36102 ft | 410 kts | 327° |
| 2026-05-09 10:35 | 35.03280 | 24.21866 | 36097 ft | 409 kts | 327° |
| 2026-05-09 10:35 | 35.08298 | 24.18598 | 36098 ft | 408 kts | 327° |
| 2026-05-09 10:36 | 35.13299 | 24.15336 | 36095 ft | 408 kts | 327° |
| 2026-05-09 10:36 | 35.18298 | 24.12071 | 36090 ft | 407 kts | 327° |
| 2026-05-09 10:37 | 35.23291 | 24.08806 | 36099 ft | 407 kts | 327° |
| 2026-05-09 10:37 | 35.28289 | 24.05532 | 36073 ft | 408 kts | 327° |
| 2026-05-09 10:38 | 35.33298 | 24.02244 | 36070 ft | 408 kts | 327° |
| 2026-05-09 10:38 | 35.38301 | 23.98957 | 36044 ft | 409 kts | 327° |
| 2026-05-09 10:39 | 35.43313 | 23.95663 | 36044 ft | 408 kts | 327° |
| 2026-05-09 10:39 | 35.48319 | 23.92366 | 36038 ft | 408 kts | 327° |
| 2026-05-09 10:40 | 35.53311 | 23.89075 | 36041 ft | 406 kts | 327° |
| 2026-05-09 10:40 | 35.58278 | 23.85794 | 36044 ft | 404 kts | 327° |
| 2026-05-09 10:41 | 35.63221 | 23.82524 | 36056 ft | 403 kts | 326° |
| 2026-05-09 10:41 | 35.68138 | 23.79267 | 36054 ft | 401 kts | 326° |
| 2026-05-09 10:42 | 35.73047 | 23.76010 | 36066 ft | 400 kts | 326° |
| 2026-05-09 10:42 | 35.77948 | 23.72753 | 36079 ft | 401 kts | 326° |
| 2026-05-09 10:43 | 35.82853 | 23.69490 | 36067 ft | 401 kts | 326° |
| 2026-05-09 10:43 | 35.87759 | 23.66221 | 36062 ft | 401 kts | 326° |
| 2026-05-09 10:44 | 35.92631 | 23.62971 | 36063 ft | 401 kts | 326° |
| 2026-05-09 10:44 | 35.97565 | 23.59674 | 36062 ft | 401 kts | 326° |